Time;durP1;ratioP1;P1;durP2;ratioP2;P2;SDS_P1;SDS_P2;PMS_P1;PMS_P2;Temp;Humidity;BMP_temperature;BMP_pressure;BME280_temperature;BME280_humidity;BME280_pressure;Samples;Min_cycle;Max_cycle;Signal;HPM_P1;HPM_P2
2021/11/19 00:00:57;;;;;;;23.80;13.73;;;;;;;;;;5113038;28;20285;-77
2021/11/19 00:03:24;;;;;;;21.03;13.87;;;;;;;;;;5113271;28;20304;-77
2021/11/19 00:05:52;;;;;;;23.70;13.27;;;;;;;;;;5119546;27;20284;-76
2021/11/19 00:08:25;;;;;;;24.40;13.23;;;;;;;;;;5122246;27;20212;-76
2021/11/19 00:10:52;;;;;;;18.57;12.30;;;;;;;;;;5124666;27;20201;-77
2021/11/19 00:13:21;;;;;;;21.57;12.90;;;;;;;;;;5117516;27;20229;-76
2021/11/19 00:15:48;;;;;;;22.27;12.20;;;;;;;;;;5133027;27;20259;-76
2021/11/19 00:18:15;;;;;;;21.53;12.97;;;;;;;;;;5113084;28;20279;-77
2021/11/19 00:20:42;;;;;;;18.00;12.33;;;;;;;;;;5113157;28;20284;-77
2021/11/19 00:23:10;;;;;;;23.37;14.07;;;;;;;;;;5113094;28;20273;-76
2021/11/19 00:25:37;;;;;;;21.70;12.37;;;;;;;;;;5112815;27;20708;-76
2021/11/19 00:28:06;;;;;;;16.80;12.13;;;;;;;;;;5131181;27;20228;-76
2021/11/19 00:30:36;;;;;;;21.40;13.50;;;;;;;;;;5125178;27;20225;-76
2021/11/19 00:33:03;;;;;;;18.47;12.53;;;;;;;;;;5116018;27;20232;-76
2021/11/19 00:35:30;;;;;;;20.23;13.27;;;;;;;;;;5130697;27;20675;-76
2021/11/19 00:37:58;;;;;;;22.17;13.23;;;;;;;;;;5112672;28;20243;-76
2021/11/19 00:40:30;;;;;;;20.67;13.00;;;;;;;;;;5112935;28;20276;-76
2021/11/19 00:42:58;;;;;;;19.70;12.27;;;;;;;;;;5112437;28;20245;-76
2021/11/19 00:45:25;;;;;;;18.40;12.23;;;;;;;;;;5112041;28;20207;-76
2021/11/19 00:47:54;;;;;;;20.47;12.10;;;;;;;;;;5114153;27;20748;-76
2021/11/19 00:50:23;;;;;;;19.77;11.93;;;;;;;;;;5112407;28;20297;-76
2021/11/19 00:52:50;;;;;;;18.90;11.77;;;;;;;;;;5112069;28;20198;-76
2021/11/19 00:55:17;;;;;;;22.20;10.70;;;;;;;;;;5111924;28;20197;-76
2021/11/19 00:57:45;;;;;;;20.87;11.60;;;;;;;;;;5116019;27;20287;-76
2021/11/19 01:00:14;;;;;;;17.27;11.03;;;;;;;;;;5128421;27;20220;-76
2021/11/19 01:02:41;;;;;;;17.40;10.57;;;;;;;;;;5111843;28;20562;-77
2021/11/19 01:05:11;;;;;;;15.00;10.80;;;;;;;;;;5112553;27;20289;-76
2021/11/19 01:07:38;;;;;;;18.87;10.03;;;;;;;;;;5115080;27;20198;-76
2021/11/19 01:10:07;;;;;;;16.63;10.60;;;;;;;;;;5123607;27;20284;-76
2021/11/19 01:12:35;;;;;;;15.87;9.57;;;;;;;;;;5112295;28;20753;-76
2021/11/19 01:15:05;;;;;;;15.40;9.93;;;;;;;;;;5111728;28;20307;-76
2021/11/19 01:17:34;;;;;;;16.07;10.10;;;;;;;;;;5112529;28;20300;-76
2021/11/19 01:20:03;;;;;;;15.20;9.50;;;;;;;;;;5111091;28;20248;-76
2021/11/19 01:22:33;;;;;;;18.20;10.07;;;;;;;;;;5112783;28;20202;-76
2021/11/19 01:25:01;;;;;;;12.20;9.03;;;;;;;;;;5111560;28;20292;-76
2021/11/19 01:27:28;;;;;;;15.10;9.00;;;;;;;;;;5111798;28;20607;-76
2021/11/19 01:29:56;;;;;;;16.63;8.57;;;;;;;;;;5110835;28;20642;-76
2021/11/19 01:32:24;;;;;;;16.87;9.30;;;;;;;;;;5124063;28;20239;-76
2021/11/19 01:34:52;;;;;;;16.43;9.47;;;;;;;;;;5111869;28;20295;-76
2021/11/19 01:37:19;;;;;;;15.03;8.67;;;;;;;;;;5111547;28;20223;-76
2021/11/19 01:39:48;;;;;;;14.13;8.57;;;;;;;;;;5111577;28;20288;-77
2021/11/19 01:42:17;;;;;;;14.40;8.43;;;;;;;;;;5111230;28;20728;-76
2021/11/19 01:44:45;;;;;;;16.33;8.20;;;;;;;;;;5119175;28;20223;-76
2021/11/19 01:47:13;;;;;;;16.23;7.90;;;;;;;;;;5129972;28;20280;-76
2021/11/19 01:49:41;;;;;;;15.17;7.77;;;;;;;;;;5111230;28;20213;-77
2021/11/19 01:52:12;;;;;;;16.80;8.37;;;;;;;;;;5111593;28;20295;-76
2021/11/19 01:54:40;;;;;;;14.83;7.47;;;;;;;;;;5111897;28;20281;-76
2021/11/19 01:57:14;;;;;;;16.67;7.57;;;;;;;;;;5127542;28;20686;-76
2021/11/19 01:59:43;;;;;;;13.77;6.70;;;;;;;;;;5118090;28;20197;-76
2021/11/19 02:02:12;;;;;;;15.73;7.40;;;;;;;;;;5111317;28;20268;-76
2021/11/19 02:04:46;;;;;;;12.77;7.50;;;;;;;;;;5111655;28;20291;-76
2021/11/19 02:07:15;;;;;;;12.50;7.03;;;;;;;;;;5110871;28;20306;-77
2021/11/19 02:09:44;;;;;;;11.87;7.07;;;;;;;;;;5111121;28;20245;-76
2021/11/19 02:12:19;;;;;;;10.13;6.27;;;;;;;;;;5111507;28;20297;-76
2021/11/19 02:14:50;;;;;;;16.40;6.87;;;;;;;;;;5111706;28;20308;-76
2021/11/19 02:17:17;;;;;;;14.03;7.30;;;;;;;;;;5111485;28;20240;-76
2021/11/19 02:19:46;;;;;;;14.37;6.97;;;;;;;;;;5111014;28;20309;-76
2021/11/19 02:22:18;;;;;;;13.37;7.00;;;;;;;;;;5110902;28;20262;-76
2021/11/19 02:24:47;;;;;;;11.80;6.50;;;;;;;;;;5110492;28;20282;-76
2021/11/19 02:27:19;;;;;;;12.87;7.63;;;;;;;;;;5093121;28;20202;-76
2021/11/19 02:29:49;;;;;;;14.80;7.40;;;;;;;;;;5121466;27;20602;-76
2021/11/19 02:32:18;;;;;;;12.37;6.97;;;;;;;;;;5115023;28;20237;-76
2021/11/19 02:34:46;;;;;;;14.27;6.73;;;;;;;;;;5115188;28;20203;-76
2021/11/19 02:37:15;;;;;;;17.67;7.30;;;;;;;;;;5115526;28;20280;-76
2021/11/19 02:39:43;;;;;;;15.73;7.23;;;;;;;;;;5114097;27;20222;-77
2021/11/19 02:42:12;;;;;;;13.43;6.93;;;;;;;;;;5114830;28;20313;-76
2021/11/19 02:44:42;;;;;;;12.13;7.10;;;;;;;;;;5114609;28;20230;-76
2021/11/19 02:47:10;;;;;;;14.07;7.07;;;;;;;;;;5114999;28;20280;-76
2021/11/19 02:49:38;;;;;;;12.83;7.10;;;;;;;;;;5124968;27;20301;-76
2021/11/19 02:52:06;;;;;;;11.60;6.80;;;;;;;;;;5114642;28;20205;-76
2021/11/19 02:54:33;;;;;;;11.83;7.20;;;;;;;;;;5114434;28;20685;-76
2021/11/19 02:57:02;;;;;;;12.00;7.17;;;;;;;;;;5132115;27;20227;-76
2021/11/19 02:59:30;;;;;;;11.20;7.17;;;;;;;;;;5094341;28;20205;-76
2021/11/19 03:01:59;;;;;;;15.03;7.60;;;;;;;;;;5094352;28;20238;-75
2021/11/19 03:04:28;;;;;;;16.80;7.60;;;;;;;;;;5110368;28;20276;-76
2021/11/19 03:06:56;;;;;;;13.57;7.17;;;;;;;;;;5114377;28;20305;-76
2021/11/19 03:09:25;;;;;;;11.90;7.33;;;;;;;;;;5114271;28;20302;-76
2021/11/19 03:11:52;;;;;;;14.13;7.70;;;;;;;;;;5119726;27;20209;-76
2021/11/19 03:14:20;;;;;;;12.57;7.47;;;;;;;;;;5114732;28;20309;-76
2021/11/19 03:16:48;;;;;;;17.50;8.30;;;;;;;;;;5114281;28;20240;-76
2021/11/19 03:19:16;;;;;;;19.73;7.50;;;;;;;;;;5114346;28;20671;-76
2021/11/19 03:21:44;;;;;;;14.57;7.37;;;;;;;;;;5114134;28;20233;-76
2021/11/19 03:24:13;;;;;;;12.90;7.03;;;;;;;;;;5113978;28;20288;-75
2021/11/19 03:26:40;;;;;;;13.50;7.27;;;;;;;;;;5113501;28;20285;-76
2021/11/19 03:29:08;;;;;;;14.60;7.30;;;;;;;;;;5114245;28;20226;-76
2021/11/19 03:31:36;;;;;;;13.27;6.87;;;;;;;;;;5118933;27;20277;-75
2021/11/19 03:34:03;;;;;;;13.53;6.70;;;;;;;;;;5113851;28;20237;-76
2021/11/19 03:36:32;;;;;;;10.47;6.50;;;;;;;;;;5113939;28;20280;-76
2021/11/19 03:39:01;;;;;;;13.73;6.73;;;;;;;;;;5113662;28;20284;-76
2021/11/19 03:41:29;;;;;;;11.03;6.80;;;;;;;;;;5106043;28;20237;-76
2021/11/19 03:43:58;;;;;;;13.27;7.17;;;;;;;;;;5093562;28;20211;-76
2021/11/19 03:46:27;;;;;;;11.63;6.40;;;;;;;;;;5110937;27;20228;-76
2021/11/19 03:48:54;;;;;;;10.40;6.07;;;;;;;;;;5114043;28;20289;-75
2021/11/19 03:51:36;;;;;;;7.57;5.87;;;;;;;;;;5113528;27;20308;-75
2021/11/19 03:54:06;;;;;;;11.70;5.83;;;;;;;;;;5113328;28;20634;-75
2021/11/19 03:56:33;;;;;;;9.07;5.87;;;;;;;;;;5113522;27;20293;-76
2021/11/19 03:59:00;;;;;;;9.43;5.83;;;;;;;;;;5113711;28;20292;-76
2021/11/19 04:01:28;;;;;;;8.70;5.90;;;;;;;;;;5124692;27;20707;-75
2021/11/19 04:03:56;;;;;;;11.73;5.90;;;;;;;;;;5134496;27;20228;-76
2021/11/19 04:06:24;;;;;;;9.27;5.20;;;;;;;;;;5134374;27;20235;-77
2021/11/19 04:08:52;;;;;;;11.70;5.63;;;;;;;;;;5116510;27;20253;-76
2021/11/19 04:11:20;;;;;;;9.83;5.67;;;;;;;;;;5113701;27;20312;-75
2021/11/19 04:13:48;;;;;;;9.00;5.43;;;;;;;;;;5113465;28;21726;-75
2021/11/19 04:16:17;;;;;;;9.87;5.53;;;;;;;;;;5112545;28;20297;-76
2021/11/19 04:18:44;;;;;;;10.67;5.10;;;;;;;;;;5113206;28;20770;-76
2021/11/19 04:21:12;;;;;;;13.13;5.67;;;;;;;;;;5113373;28;20232;-76
2021/11/19 04:23:40;;;;;;;9.13;5.50;;;;;;;;;;5113367;28;20239;-76
2021/11/19 04:26:08;;;;;;;8.87;5.20;;;;;;;;;;5113355;28;20288;-76
2021/11/19 04:28:37;;;;;;;8.83;5.40;;;;;;;;;;5112603;28;20280;-75
2021/11/19 04:31:05;;;;;;;11.13;5.20;;;;;;;;;;5113146;28;20267;-76
2021/11/19 04:33:32;;;;;;;8.33;4.70;;;;;;;;;;5112210;28;20744;-76
2021/11/19 04:35:59;;;;;;;9.57;4.97;;;;;;;;;;5133038;27;20207;-75
2021/11/19 04:38:27;;;;;;;9.23;5.23;;;;;;;;;;5116437;27;20297;-76
2021/11/19 04:40:55;;;;;;;9.83;5.17;;;;;;;;;;5112556;28;20736;-76
2021/11/19 04:43:23;;;;;;;8.43;5.20;;;;;;;;;;5112776;28;20680;-76
2021/11/19 04:45:52;;;;;;;12.73;5.27;;;;;;;;;;5112787;28;20631;-75
2021/11/19 04:48:19;;;;;;;9.17;5.03;;;;;;;;;;5112489;28;20283;-76
2021/11/19 04:50:49;;;;;;;9.13;4.77;;;;;;;;;;5112618;28;20319;-75
2021/11/19 04:53:18;;;;;;;6.80;4.80;;;;;;;;;;5111884;28;20833;-76
2021/11/19 04:55:46;;;;;;;10.43;5.03;;;;;;;;;;5133172;27;20239;-76
2021/11/19 04:58:13;;;;;;;9.17;5.70;;;;;;;;;;5124117;27;20283;-76
2021/11/19 05:00:43;;;;;;;14.67;5.47;;;;;;;;;;5112264;28;20292;-76
2021/11/19 05:03:11;;;;;;;13.60;5.80;;;;;;;;;;5112994;28;20288;-76
2021/11/19 05:05:39;;;;;;;11.87;5.80;;;;;;;;;;5111996;28;20760;-75
2021/11/19 05:08:08;;;;;;;13.53;5.13;;;;;;;;;;5112273;28;20235;-75
2021/11/19 05:10:35;;;;;;;13.10;6.30;;;;;;;;;;5111821;28;20303;-76
2021/11/19 05:13:03;;;;;;;8.83;5.50;;;;;;;;;;5113935;27;20565;-76
2021/11/19 05:15:31;;;;;;;10.30;5.83;;;;;;;;;;5111800;28;20248;-75
2021/11/19 05:17:58;;;;;;;10.30;5.93;;;;;;;;;;5112311;28;20232;-75
2021/11/19 05:20:27;;;;;;;10.43;5.17;;;;;;;;;;5112553;28;20743;-76
2021/11/19 05:22:54;;;;;;;11.40;5.93;;;;;;;;;;5112491;28;20236;-75
2021/11/19 05:25:23;;;;;;;9.47;5.27;;;;;;;;;;5112755;28;20200;-76
2021/11/19 05:27:51;;;;;;;8.73;5.60;;;;;;;;;;5112363;28;20292;-75
2021/11/19 05:30:18;;;;;;;13.23;5.63;;;;;;;;;;5112666;28;20231;-76
2021/11/19 05:32:46;;;;;;;15.67;4.97;;;;;;;;;;5111229;28;20199;-76
2021/11/19 05:35:13;;;;;;;11.30;5.37;;;;;;;;;;5111322;28;20672;-75
2021/11/19 05:37:42;;;;;;;10.63;5.10;;;;;;;;;;5111514;28;20625;-75
2021/11/19 05:40:11;;;;;;;9.83;4.77;;;;;;;;;;5111826;28;20227;-76
2021/11/19 05:42:38;;;;;;;10.63;5.67;;;;;;;;;;5112014;28;20284;-76
2021/11/19 05:45:06;;;;;;;13.47;5.67;;;;;;;;;;5111679;28;20295;-76
2021/11/19 05:47:34;;;;;;;8.60;5.00;;;;;;;;;;5112028;28;20641;-76
2021/11/19 05:50:02;;;;;;;11.17;5.03;;;;;;;;;;5111354;28;20668;-76
2021/11/19 05:52:30;;;;;;;10.20;5.30;;;;;;;;;;5121015;28;20208;-75
2021/11/19 05:55:00;;;;;;;11.60;4.77;;;;;;;;;;5114416;28;20235;-76
2021/11/19 05:57:28;;;;;;;15.27;5.70;;;;;;;;;;5126302;28;20199;-76
2021/11/19 05:59:56;;;;;;;11.30;5.40;;;;;;;;;;5132509;28;20295;-76
2021/11/19 06:02:23;;;;;;;9.07;5.37;;;;;;;;;;5113103;28;20291;-76
2021/11/19 06:04:51;;;;;;;10.87;5.17;;;;;;;;;;5124185;27;20231;-76
2021/11/19 06:07:19;;;;;;;11.37;6.10;;;;;;;;;;5116370;28;20231;-76
2021/11/19 06:09:48;;;;;;;9.67;5.60;;;;;;;;;;5116249;28;20283;-75
2021/11/19 06:12:19;;;;;;;6.93;5.10;;;;;;;;;;5114481;28;20618;-76
2021/11/19 06:14:48;;;;;;;9.47;5.63;;;;;;;;;;5115160;28;20304;-75
2021/11/19 06:17:19;;;;;;;12.83;5.13;;;;;;;;;;5114733;28;20289;-75
2021/11/19 06:19:48;;;;;;;10.10;5.27;;;;;;;;;;5114689;27;20320;-76
2021/11/19 06:22:17;;;;;;;12.53;5.40;;;;;;;;;;5118687;27;20279;-76
2021/11/19 06:24:46;;;;;;;10.67;5.27;;;;;;;;;;5118523;27;20293;-75
2021/11/19 06:27:15;;;;;;;7.10;4.87;;;;;;;;;;5115365;27;20204;-76
2021/11/19 06:29:44;;;;;;;10.27;5.60;;;;;;;;;;5110354;28;20240;-75
2021/11/19 06:32:11;;;;;;;9.67;4.67;;;;;;;;;;5114428;28;20312;-76
2021/11/19 06:34:38;;;;;;;11.10;5.17;;;;;;;;;;5115149;28;20288;-76
2021/11/19 06:37:05;;;;;;;14.83;5.70;;;;;;;;;;5114577;28;20299;-75
2021/11/19 06:39:33;;;;;;;11.83;5.73;;;;;;;;;;5114942;28;20196;-76
2021/11/19 06:42:00;;;;;;;8.83;5.30;;;;;;;;;;5107155;28;20295;-75
2021/11/19 06:44:28;;;;;;;9.13;5.23;;;;;;;;;;5114684;27;20228;-78
2021/11/19 06:46:56;;;;;;;10.00;5.87;;;;;;;;;;5113272;28;20295;-76
2021/11/19 06:49:23;;;;;;;9.17;5.80;;;;;;;;;;5111763;28;20224;-76
2021/11/19 06:51:51;;;;;;;10.73;5.33;;;;;;;;;;5106957;28;20249;-77
2021/11/19 06:54:18;;;;;;;11.63;5.67;;;;;;;;;;5110032;27;20197;-77
2021/11/19 06:56:45;;;;;;;12.27;5.77;;;;;;;;;;5112007;27;20296;-77
2021/11/19 06:59:12;;;;;;;13.23;6.10;;;;;;;;;;5104816;28;20287;-77
2021/11/19 07:01:40;;;;;;;11.40;5.90;;;;;;;;;;5113781;28;20307;-76
2021/11/19 07:04:08;;;;;;;11.73;6.27;;;;;;;;;;5113690;28;20238;-76
2021/11/19 07:06:36;;;;;;;13.23;6.20;;;;;;;;;;5113947;28;20287;-76
2021/11/19 07:09:05;;;;;;;10.60;6.17;;;;;;;;;;5113333;28;20674;-76
2021/11/19 07:11:32;;;;;;;9.90;6.23;;;;;;;;;;5113679;28;20317;-76
2021/11/19 07:13:59;;;;;;;11.33;5.93;;;;;;;;;;5113638;28;20634;-76
2021/11/19 07:16:28;;;;;;;10.97;6.60;;;;;;;;;;5120482;27;20289;-78
2021/11/19 07:18:56;;;;;;;11.23;6.27;;;;;;;;;;5116553;27;20228;-78
2021/11/19 07:22:21;;;;;;;12.37;6.67;;;;;;;;;;5113868;27;20664;-77
2021/11/19 07:24:52;;;;;;;12.53;6.33;;;;;;;;;;5033098;28;20205;-78
2021/11/19 07:27:19;;;;;;;14.30;6.50;;;;;;;;;;5109070;28;20665;-77
2021/11/19 07:29:47;;;;;;;13.20;6.50;;;;;;;;;;5113861;28;20785;-77
2021/11/19 07:32:14;;;;;;;12.53;6.57;;;;;;;;;;5113301;28;20312;-78
2021/11/19 07:34:41;;;;;;;13.07;6.60;;;;;;;;;;5113954;28;20288;-78
2021/11/19 07:37:09;;;;;;;9.90;6.90;;;;;;;;;;5113662;28;20284;-78
2021/11/19 07:39:37;;;;;;;11.87;7.50;;;;;;;;;;5113837;28;20548;-78
2021/11/19 07:42:05;;;;;;;15.67;7.17;;;;;;;;;;5113461;28;20222;-77
2021/11/19 07:44:33;;;;;;;18.13;9.87;;;;;;;;;;5112949;28;20308;-78
2021/11/19 07:47:00;;;;;;;19.93;9.83;;;;;;;;;;5113513;28;20240;-77
2021/11/19 07:49:27;;;;;;;16.70;9.37;;;;;;;;;;5115904;27;20738;-79
2021/11/19 07:51:55;;;;;;;13.90;8.57;;;;;;;;;;5113202;28;20983;-78
2021/11/19 07:54:23;;;;;;;10.93;7.33;;;;;;;;;;5113218;28;20248;-78
2021/11/19 07:56:50;;;;;;;13.40;6.93;;;;;;;;;;5113088;28;20230;-77
2021/11/19 07:59:19;;;;;;;10.40;6.33;;;;;;;;;;5121995;27;20241;-77
2021/11/19 08:01:47;;;;;;;10.77;5.77;;;;;;;;;;5113503;28;20230;-78
2021/11/19 08:04:15;;;;;;;8.47;5.40;;;;;;;;;;5113802;27;20229;-78
2021/11/19 08:06:43;;;;;;;8.13;4.80;;;;;;;;;;5112520;28;20285;-78
2021/11/19 08:09:11;;;;;;;8.47;4.77;;;;;;;;;;5113392;28;20229;-78
2021/11/19 08:11:39;;;;;;;7.47;4.13;;;;;;;;;;5113075;28;20296;-78
2021/11/19 08:14:06;;;;;;;12.03;4.57;;;;;;;;;;5113414;28;20650;-79
2021/11/19 08:16:37;;;;;;;9.67;4.53;;;;;;;;;;5115340;27;20395;-78
2021/11/19 08:19:06;;;;;;;8.00;4.37;;;;;;;;;;5113090;28;20320;-79
2021/11/19 08:21:33;;;;;;;8.13;4.40;;;;;;;;;;5113763;28;20628;-79
2021/11/19 08:24:01;;;;;;;8.20;5.23;;;;;;;;;;5113005;28;20224;-78
2021/11/19 08:26:31;;;;;;;10.53;4.93;;;;;;;;;;5112158;28;20738;-78
2021/11/19 08:28:59;;;;;;;7.93;4.97;;;;;;;;;;5112738;28;20225;-78
2021/11/19 08:31:27;;;;;;;9.97;4.60;;;;;;;;;;5113078;28;20313;-79
2021/11/19 08:33:56;;;;;;;8.97;4.57;;;;;;;;;;5112721;28;20613;-78
2021/11/19 08:36:24;;;;;;;8.03;4.73;;;;;;;;;;5112890;28;20229;-78
2021/11/19 08:38:51;;;;;;;8.50;4.40;;;;;;;;;;5112504;28;20285;-78
2021/11/19 08:41:20;;;;;;;11.00;4.73;;;;;;;;;;5115341;27;20285;-78
2021/11/19 08:43:48;;;;;;;9.37;4.50;;;;;;;;;;5122732;27;20198;-78
2021/11/19 08:46:16;;;;;;;12.43;4.80;;;;;;;;;;5112476;28;20193;-79
2021/11/19 08:48:46;;;;;;;8.83;4.80;;;;;;;;;;5112506;28;20292;-79
2021/11/19 08:51:18;;;;;;;7.57;4.27;;;;;;;;;;5117097;27;20221;-79
2021/11/19 08:53:46;;;;;;;8.80;4.20;;;;;;;;;;5119484;27;20210;-79
2021/11/19 08:56:13;;;;;;;7.87;4.50;;;;;;;;;;5111964;28;20225;-78
2021/11/19 08:58:42;;;;;;;10.40;4.20;;;;;;;;;;5111564;28;20204;-78
2021/11/19 09:01:10;;;;;;;8.27;4.60;;;;;;;;;;5111145;28;20190;-79
2021/11/19 09:03:37;;;;;;;7.45;4.40;;;;;;;;;;5111645;28;20241;-79
2021/11/19 09:06:06;;;;;;;8.20;4.68;;;;;;;;;;5111653;28;20215;-78
2021/11/19 09:08:35;;;;;;;12.70;6.20;;;;;;;;;;5125905;27;20602;-79
2021/11/19 09:11:02;;;;;;;8.03;4.53;;;;;;;;;;5122354;27;20193;-79
2021/11/19 09:13:30;;;;;;;9.97;4.57;;;;;;;;;;5111602;28;20229;-78
2021/11/19 09:15:58;;;;;;;9.90;4.80;;;;;;;;;;5105517;28;20281;-78
2021/11/19 09:18:30;;;;;;;9.93;4.80;;;;;;;;;;5111128;28;20320;-78
2021/11/19 09:21:07;;;;;;;9.30;4.03;;;;;;;;;;5112311;28;20284;-79
2021/11/19 09:23:37;;;;;;;10.33;4.30;;;;;;;;;;5105793;28;20284;-79
2021/11/19 09:26:06;;;;;;;8.20;4.13;;;;;;;;;;5111240;28;20235;-78
2021/11/19 09:28:35;;;;;;;9.87;4.27;;;;;;;;;;5111534;28;20288;-78
2021/11/19 09:31:05;;;;;;;14.17;4.50;;;;;;;;;;5111853;28;20198;-79
2021/11/19 09:33:32;;;;;;;10.23;4.23;;;;;;;;;;5111364;28;20190;-78
2021/11/19 09:36:00;;;;;;;9.23;3.83;;;;;;;;;;5111978;28;20201;-78
2021/11/19 09:38:28;;;;;;;8.80;4.10;;;;;;;;;;5111433;28;20312;-79
2021/11/19 09:41:00;;;;;;;8.57;4.67;;;;;;;;;;5111626;28;20282;-79
2021/11/19 09:43:33;;;;;;;11.03;4.40;;;;;;;;;;5111298;28;20336;-79
2021/11/19 09:46:14;;;;;;;9.50;3.80;;;;;;;;;;5112238;28;20285;-78
2021/11/19 09:48:50;;;;;;;11.70;4.40;;;;;;;;;;5111611;28;20229;-78
2021/11/19 09:51:51;;;;;;;8.07;3.60;;;;;;;;;;5111009;28;20284;-80
2021/11/19 09:54:33;;;;;;;9.37;3.60;;;;;;;;;;5110985;28;20293;-79
2021/11/19 09:57:17;;;;;;;10.80;3.60;;;;;;;;;;5111580;28;20292;-79
2021/11/19 09:59:47;;;;;;;11.77;3.80;;;;;;;;;;5028641;28;20236;-79
2021/11/19 10:02:36;;;;;;;11.65;3.53;;;;;;;;;;5028985;28;20254;-79
2021/11/19 10:05:21;;;;;;;7.13;3.58;;;;;;;;;;5028948;28;20668;-79
2021/11/19 10:07:54;;;;;;;10.80;3.10;;;;;;;;;;5028668;28;20204;-79
2021/11/19 10:10:35;;;;;;;11.98;3.38;;;;;;;;;;5031986;28;20223;-79
2021/11/19 10:13:05;;;;;;;5.38;2.75;;;;;;;;;;5046562;28;20298;-79
2021/11/19 10:15:38;;;;;;;8.20;2.72;;;;;;;;;;5028841;28;20224;-79
2021/11/19 10:18:08;;;;;;;9.60;3.05;;;;;;;;;;5038756;28;20223;-80
2021/11/19 10:20:44;;;;;;;9.23;2.90;;;;;;;;;;5009152;28;20204;-79
2021/11/19 10:23:12;;;;;;;7.97;2.60;;;;;;;;;;5047062;28;20287;-79
2021/11/19 10:25:42;;;;;;;12.07;3.10;;;;;;;;;;5047885;28;20295;-80
2021/11/19 10:28:10;;;;;;;13.97;3.20;;;;;;;;;;5038244;28;20304;-80
2021/11/19 10:30:41;;;;;;;10.37;2.47;;;;;;;;;;5043369;28;20693;-79
2021/11/19 10:33:12;;;;;;;10.70;3.17;;;;;;;;;;5047441;28;20273;-79
2021/11/19 10:35:57;;;;;;;11.20;2.77;;;;;;;;;;5035290;28;20231;-79
2021/11/19 10:38:38;;;;;;;7.43;2.60;;;;;;;;;;5100088;28;20289;-79
2021/11/19 10:41:17;;;;;;;10.63;2.67;;;;;;;;;;5111490;28;20288;-79
2021/11/19 10:43:52;;;;;;;10.07;3.00;;;;;;;;;;5090872;28;20644;-80
2021/11/19 10:46:30;;;;;;;11.70;2.90;;;;;;;;;;5119436;28;20216;-79
2021/11/19 10:49:02;;;;;;;8.50;2.80;;;;;;;;;;5119889;28;20595;-79
2021/11/19 10:51:41;;;;;;;9.97;3.07;;;;;;;;;;5111073;27;20308;-80
2021/11/19 10:54:38;;;;;;;7.40;2.97;;;;;;;;;;5114285;28;20229;-80
2021/11/19 10:57:12;;;;;;;9.65;3.05;;;;;;;;;;5114625;28;20244;-79
2021/11/19 10:59:40;;;;;;;11.52;3.13;;;;;;;;;;5115168;28;20252;-79
2021/11/19 11:02:32;;;;;;;9.43;2.53;;;;;;;;;;5114653;27;20278;-80
2021/11/19 11:05:01;;;;;;;8.98;3.25;;;;;;;;;;5113947;27;20260;-79
2021/11/19 11:07:30;;;;;;;13.60;4.00;;;;;;;;;;5114128;28;20233;-80
2021/11/19 11:10:01;;;;;;;10.95;3.40;;;;;;;;;;5113370;28;20198;-78
2021/11/19 11:12:31;;;;;;;14.15;4.10;;;;;;;;;;5114306;28;20309;-79
2021/11/19 11:15:13;;;;;;;12.00;4.03;;;;;;;;;;5114514;28;20787;-79
2021/11/19 11:17:52;;;;;;;13.13;4.50;;;;;;;;;;5114568;28;20281;-79
2021/11/19 11:20:22;;;;;;;13.27;4.57;;;;;;;;;;5114381;28;20209;-79
2021/11/19 11:22:52;;;;;;;10.17;3.80;;;;;;;;;;5114015;28;20910;-79
2021/11/19 11:25:24;;;;;;;9.52;4.03;;;;;;;;;;5113820;28;20202;-79
2021/11/19 11:28:05;;;;;;;13.13;4.33;;;;;;;;;;5114605;28;20212;-79
2021/11/19 11:30:47;;;;;;;12.63;4.20;;;;;;;;;;5114187;28;20201;-79
2021/11/19 11:33:18;;;;;;;14.63;4.53;;;;;;;;;;5115307;27;20252;-79
2021/11/19 11:35:47;;;;;;;12.63;4.33;;;;;;;;;;5110816;28;20767;-78
2021/11/19 11:38:32;;;;;;;10.97;4.27;;;;;;;;;;5113256;28;20290;-78
2021/11/19 11:41:12;;;;;;;17.10;5.50;;;;;;;;;;5114249;28;20237;-78
2021/11/19 11:43:40;;;;;;;14.67;4.10;;;;;;;;;;5117594;27;20271;-78
2021/11/19 11:46:21;;;;;;;13.83;4.40;;;;;;;;;;5125500;27;20641;-78
2021/11/19 11:48:51;;;;;;;13.97;4.60;;;;;;;;;;5113266;27;20284;-78
2021/11/19 11:51:22;;;;;;;13.30;4.33;;;;;;;;;;5114628;27;20284;-78
2021/11/19 11:53:55;;;;;;;10.67;3.90;;;;;;;;;;5112937;27;20304;-78
2021/11/19 11:56:24;;;;;;;11.73;4.13;;;;;;;;;;5112645;28;20636;-79
2021/11/19 11:59:04;;;;;;;12.50;4.10;;;;;;;;;;5112262;27;20297;-78
2021/11/19 12:01:39;;;;;;;10.33;3.53;;;;;;;;;;5110715;27;20281;-77
2021/11/19 12:04:11;;;;;;;13.87;3.70;;;;;;;;;;5099258;28;20211;-78
2021/11/19 12:06:53;;;;;;;9.50;3.47;;;;;;;;;;5112297;28;20247;-78
2021/11/19 12:09:23;;;;;;;15.33;3.47;;;;;;;;;;5112988;28;20288;-78
2021/11/19 12:12:06;;;;;;;12.63;3.43;;;;;;;;;;5111969;28;20589;-78
2021/11/19 12:14:42;;;;;;;14.33;3.77;;;;;;;;;;5112371;28;20214;-78
2021/11/19 12:17:14;;;;;;;13.98;3.60;;;;;;;;;;5112119;28;20836;-78
2021/11/19 12:19:47;;;;;;;12.57;3.30;;;;;;;;;;5112039;28;20313;-76
2021/11/19 12:22:19;;;;;;;12.80;3.57;;;;;;;;;;5112823;27;20198;-78
2021/11/19 12:24:49;;;;;;;11.23;3.67;;;;;;;;;;5116891;27;20236;-78
2021/11/19 12:27:55;;;;;;;10.18;3.40;;;;;;;;;;5112152;28;20202;-75
2021/11/19 12:30:28;;;;;;;12.23;3.80;;;;;;;;;;5106995;28;20599;-78
2021/11/19 12:32:56;;;;;;;12.45;4.05;;;;;;;;;;5112071;28;20229;-78
2021/11/19 12:35:26;;;;;;;13.50;3.87;;;;;;;;;;5110841;28;20717;-78
2021/11/19 12:37:59;;;;;;;11.35;3.92;;;;;;;;;;5113060;28;20194;-78
2021/11/19 12:40:31;;;;;;;13.00;3.83;;;;;;;;;;5112493;28;20633;-78
2021/11/19 12:43:05;;;;;;;9.80;3.60;;;;;;;;;;5111261;28;20368;-78
2021/11/19 12:45:34;;;;;;;13.47;4.13;;;;;;;;;;5111977;27;20196;-77
2021/11/19 12:48:15;;;;;;;10.53;4.10;;;;;;;;;;5132947;27;20232;-78
2021/11/19 12:50:46;;;;;;;12.83;4.40;;;;;;;;;;5113471;27;20288;-78
2021/11/19 12:53:37;;;;;;;13.83;4.67;;;;;;;;;;5111881;28;20312;-78
2021/11/19 12:56:19;;;;;;;14.47;4.70;;;;;;;;;;5111907;28;20756;-78
2021/11/19 12:58:47;;;;;;;12.27;4.60;;;;;;;;;;5109209;28;20565;-78
2021/11/19 13:01:20;;;;;;;14.23;5.03;;;;;;;;;;5112484;28;20233;-78
2021/11/19 13:03:53;;;;;;;11.20;4.33;;;;;;;;;;5111965;28;20198;-78
2021/11/19 13:06:36;;;;;;;12.67;4.87;;;;;;;;;;5111890;28;20309;-78
2021/11/19 13:09:24;;;;;;;12.90;4.67;;;;;;;;;;5112239;28;20288;-78
2021/11/19 13:12:02;;;;;;;10.37;4.37;;;;;;;;;;5112175;28;20198;-78
2021/11/19 13:14:43;;;;;;;13.13;4.77;;;;;;;;;;5110218;28;20228;-78
2021/11/19 13:17:26;;;;;;;12.63;4.37;;;;;;;;;;5112126;28;20193;-78
2021/11/19 13:19:53;;;;;;;11.33;4.83;;;;;;;;;;5028879;28;20232;-78
2021/11/19 13:22:36;;;;;;;13.37;5.07;;;;;;;;;;5029065;28;20682;-78
2021/11/19 13:25:06;;;;;;;17.53;5.20;;;;;;;;;;5028749;28;20204;-78
2021/11/19 13:27:51;;;;;;;12.87;4.70;;;;;;;;;;5028460;28;20274;-78
2021/11/19 13:30:38;;;;;;;16.70;5.30;;;;;;;;;;5028868;28;20196;-78
2021/11/19 13:33:10;;;;;;;11.30;4.93;;;;;;;;;;5027206;28;20303;-78
2021/11/19 13:36:05;;;;;;;12.83;4.87;;;;;;;;;;5043192;28;20235;-78
2021/11/19 13:38:51;;;;;;;14.83;4.70;;;;;;;;;;5048660;28;20238;-78
2021/11/19 13:41:26;;;;;;;14.30;5.33;;;;;;;;;;5044667;28;20763;-78
2021/11/19 13:43:53;;;;;;;18.60;5.50;;;;;;;;;;5026842;28;20233;-78
2021/11/19 13:46:39;;;;;;;12.03;5.60;;;;;;;;;;5027987;28;20295;-78
2021/11/19 13:49:11;;;;;;;14.07;5.80;;;;;;;;;;5022650;28;20763;-78
2021/11/19 13:51:42;;;;;;;13.40;5.67;;;;;;;;;;5026294;28;20291;-78
2021/11/19 13:54:27;;;;;;;13.53;5.47;;;;;;;;;;5026250;28;20254;-78
2021/11/19 13:57:03;;;;;;;12.87;5.37;;;;;;;;;;5058930;28;20285;-78
2021/11/19 13:59:34;;;;;;;13.40;5.33;;;;;;;;;;5109705;28;20232;-79
2021/11/19 14:02:06;;;;;;;14.53;5.50;;;;;;;;;;5109437;28;20376;-78
2021/11/19 14:04:34;;;;;;;16.43;6.37;;;;;;;;;;5098503;28;20196;-78
2021/11/19 14:07:04;;;;;;;15.93;7.37;;;;;;;;;;5111083;28;20676;-79
2021/11/19 14:09:39;;;;;;;17.43;7.07;;;;;;;;;;5111518;28;20292;-78
2021/11/19 14:12:14;;;;;;;14.87;5.67;;;;;;;;;;5110351;28;20296;-78
2021/11/19 14:14:43;;;;;;;14.77;5.70;;;;;;;;;;5110831;28;20711;-78
2021/11/19 14:17:11;;;;;;;16.33;5.57;;;;;;;;;;5119501;28;20219;-78
2021/11/19 14:19:48;;;;;;;11.93;5.47;;;;;;;;;;5109689;28;20249;-78
2021/11/19 14:22:18;;;;;;;19.90;7.70;;;;;;;;;;5111390;28;20680;-78
2021/11/19 14:24:52;;;;;;;25.87;7.97;;;;;;;;;;5113590;28;20231;-78
2021/11/19 14:27:26;;;;;;;17.30;6.37;;;;;;;;;;5112274;27;20295;-78
2021/11/19 14:29:55;;;;;;;20.50;6.10;;;;;;;;;;5115833;28;20796;-78
2021/11/19 14:32:28;;;;;;;15.00;6.20;;;;;;;;;;5114662;28;20293;-79
2021/11/19 14:34:56;;;;;;;15.27;5.60;;;;;;;;;;5115362;28;20202;-78
2021/11/19 14:37:28;;;;;;;14.90;6.03;;;;;;;;;;5115262;28;20236;-78
2021/11/19 14:39:56;;;;;;;16.07;5.90;;;;;;;;;;5115090;28;20198;-78
2021/11/19 14:42:28;;;;;;;12.33;5.87;;;;;;;;;;5114446;28;20225;-78
2021/11/19 14:44:57;;;;;;;12.50;5.73;;;;;;;;;;5114255;28;20198;-78
2021/11/19 14:47:26;;;;;;;16.30;4.73;;;;;;;;;;5114435;28;20193;-78
2021/11/19 14:50:00;;;;;;;14.30;4.53;;;;;;;;;;5112412;28;20210;-78
2021/11/19 14:52:32;;;;;;;11.03;4.20;;;;;;;;;;5113684;28;20787;-78